createdAt,value
2018-04-11T00:01:40.809Z,85.93
2018-04-11T00:04:08.961Z,86.93
2018-04-11T00:06:37.112Z,87.13
2018-04-11T00:09:05.227Z,85.60
2018-04-11T00:11:33.387Z,85.30
2018-04-11T00:14:01.682Z,85.46
2018-04-11T00:16:29.828Z,85.73
2018-04-11T00:18:57.953Z,86.60
2018-04-11T00:21:26.096Z,87.52
2018-04-11T00:23:54.227Z,88.22
2018-04-11T00:26:22.388Z,87.61
2018-04-11T00:28:50.536Z,86.74
2018-04-11T00:31:18.680Z,85.59
2018-04-11T00:33:46.798Z,85.99
2018-04-11T00:36:14.947Z,86.97
2018-04-11T00:38:43.081Z,87.77
2018-04-11T00:41:11.232Z,87.66
2018-04-11T00:43:39.371Z,88.09
2018-04-11T00:46:07.521Z,87.42
2018-04-11T00:48:35.645Z,87.01
2018-04-11T00:51:03.802Z,87.61
2018-04-11T00:53:31.962Z,87.69
2018-04-11T00:56:00.107Z,87.61
2018-04-11T00:58:28.248Z,86.92
2018-04-11T01:00:56.386Z,87.29
2018-04-11T01:03:24.495Z,87.00
2018-04-11T01:05:52.642Z,87.02
2018-04-11T01:08:20.777Z,87.26
2018-04-11T01:10:48.915Z,87.57
2018-04-11T01:13:17.075Z,87.92
2018-04-11T01:15:45.233Z,87.74
2018-04-11T01:18:13.377Z,88.24
2018-04-11T01:20:41.516Z,88.47
2018-04-11T01:23:09.656Z,88.68
2018-04-11T01:25:37.819Z,89.02
2018-04-11T01:28:05.957Z,88.87
2018-04-11T01:30:34.092Z,88.91
2018-04-11T01:33:02.238Z,88.85
2018-04-11T01:35:30.365Z,88.01
2018-04-11T01:37:58.491Z,89.23
2018-04-11T01:40:26.653Z,88.98
2018-04-11T01:42:54.810Z,89.04
2018-04-11T01:45:22.948Z,88.70
2018-04-11T01:47:51.079Z,88.68
2018-04-11T01:50:19.251Z,89.45
2018-04-11T01:52:47.390Z,89.19
2018-04-11T01:55:15.525Z,89.43
2018-04-11T01:57:43.672Z,89.74
2018-04-11T02:00:11.803Z,90.51
2018-04-11T02:02:39.949Z,90.74
2018-04-11T02:05:08.106Z,90.01
2018-04-11T02:07:36.223Z,89.47
2018-04-11T02:10:04.370Z,90.25
2018-04-11T02:12:32.486Z,91.45
2018-04-11T02:15:00.638Z,92.14
2018-04-11T02:17:28.782Z,91.98
2018-04-11T02:19:56.915Z,92.07
2018-04-11T02:22:25.037Z,92.00
2018-04-11T02:24:53.160Z,91.20
2018-04-11T02:27:21.284Z,90.77
2018-04-11T02:29:49.442Z,90.18
2018-04-11T02:32:17.809Z,90.94
2018-04-11T02:34:45.956Z,90.72
2018-04-11T02:37:14.083Z,90.67
2018-04-11T02:39:42.242Z,90.53
2018-04-11T02:42:10.376Z,90.43
2018-04-11T02:44:38.530Z,90.90
2018-04-11T02:47:06.671Z,90.82
2018-04-11T02:49:34.821Z,91.77
2018-04-11T02:52:02.970Z,91.62
2018-04-11T02:54:31.094Z,92.13
2018-04-11T02:56:59.431Z,92.75
2018-04-11T02:59:27.576Z,92.78
2018-04-11T03:01:55.699Z,93.21
2018-04-11T03:04:23.879Z,93.27
2018-04-11T03:06:52.023Z,92.55
2018-04-11T03:09:20.225Z,90.63
2018-04-11T03:11:48.324Z,90.48
2018-04-11T03:14:16.451Z,91.75
2018-04-11T03:16:44.602Z,91.63
2018-04-11T03:19:12.746Z,91.97
2018-04-11T03:21:40.915Z,91.18
2018-04-11T03:24:09.066Z,91.41
2018-04-11T03:26:37.187Z,89.46
2018-04-11T03:29:05.320Z,90.25
2018-04-11T03:31:33.447Z,89.90
2018-04-11T03:34:01.746Z,89.42
2018-04-11T03:36:29.883Z,88.84
2018-04-11T03:38:58.156Z,89.37
2018-04-11T03:41:26.305Z,88.97
2018-04-11T03:43:54.499Z,88.76
2018-04-11T03:46:22.667Z,89.33
2018-04-11T03:48:51.173Z,88.24
2018-04-11T03:51:19.306Z,88.14
2018-04-11T03:53:47.465Z,88.72
2018-04-11T03:56:15.620Z,87.42
2018-04-11T03:58:43.775Z,87.86
2018-04-11T04:01:11.910Z,87.67
2018-04-11T04:03:40.027Z,88.23
2018-04-11T04:06:08.169Z,87.27
2018-04-11T04:08:36.299Z,87.09
2018-04-11T04:11:04.443Z,87.26
2018-04-11T04:13:44.312Z,87.20
2018-04-11T04:16:24.235Z,87.43
2018-04-11T04:19:04.128Z,86.80
2018-04-11T04:21:33.423Z,86.86
2018-04-11T04:24:01.569Z,87.42
2018-04-11T04:26:29.718Z,88.71
2018-04-11T04:28:57.871Z,88.34
2018-04-11T04:31:26.001Z,87.96
2018-04-11T04:33:54.143Z,87.94
2018-04-11T04:36:22.288Z,87.39
2018-04-11T04:38:50.400Z,87.45
2018-04-11T04:41:18.533Z,87.37
2018-04-11T04:43:46.675Z,88.32
2018-04-11T04:46:14.825Z,87.56
2018-04-11T04:48:42.961Z,87.12
2018-04-11T04:51:11.136Z,85.99
2018-04-11T04:53:39.260Z,88.38
2018-04-11T04:56:07.384Z,89.70
2018-04-11T04:58:35.521Z,89.50
2018-04-11T05:01:03.661Z,88.33
2018-04-11T05:03:31.785Z,87.94
2018-04-11T05:05:59.953Z,87.66
2018-04-11T05:08:28.163Z,88.21
2018-04-11T05:10:56.305Z,87.82
2018-04-11T05:13:24.458Z,87.69
2018-04-11T05:15:52.601Z,87.76
2018-04-11T05:18:20.742Z,87.28
2018-04-11T05:20:48.869Z,87.48
2018-04-11T05:23:17.030Z,87.99
2018-04-11T05:25:45.142Z,87.97
2018-04-11T05:28:15.216Z,88.43
2018-04-11T05:30:43.386Z,88.46
2018-04-11T05:33:11.491Z,86.28
2018-04-11T05:35:39.640Z,86.86
2018-04-11T05:38:07.793Z,87.27
2018-04-11T05:40:35.910Z,86.96
2018-04-11T05:43:04.077Z,87.10
2018-04-11T05:45:32.219Z,86.85
2018-04-11T05:48:00.418Z,87.91
2018-04-11T05:50:28.526Z,88.01
2018-04-11T05:52:56.660Z,87.56
2018-04-11T05:55:24.866Z,87.53
2018-04-11T05:57:52.994Z,87.15
2018-04-11T06:00:21.118Z,87.79
2018-04-11T06:02:49.258Z,87.78
2018-04-11T06:05:17.380Z,88.11
2018-04-11T06:07:45.528Z,87.15
2018-04-11T06:10:13.650Z,86.63
2018-04-11T06:12:41.820Z,86.41
2018-04-11T06:15:09.954Z,87.29
2018-04-11T06:17:38.071Z,87.11
2018-04-11T06:20:06.227Z,86.60
2018-04-11T06:22:34.371Z,86.61
2018-04-11T06:25:02.510Z,86.32
2018-04-11T06:27:30.659Z,86.58
2018-04-11T06:29:58.846Z,87.46
2018-04-11T06:32:26.997Z,87.50
2018-04-11T06:34:55.143Z,87.30
2018-04-11T06:37:23.275Z,86.39
2018-04-11T06:39:51.416Z,86.34
2018-04-11T06:42:19.543Z,85.70
2018-04-11T06:44:47.707Z,86.00
2018-04-11T06:47:15.845Z,86.63
2018-04-11T06:49:43.999Z,87.20
2018-04-11T06:52:12.151Z,87.32
2018-04-11T06:54:40.273Z,87.19
2018-04-11T06:57:08.425Z,88.04
2018-04-11T06:59:36.558Z,87.18
2018-04-11T07:02:04.701Z,87.41
2018-04-11T07:04:32.898Z,87.22
2018-04-11T07:07:01.060Z,87.60
2018-04-11T07:09:29.192Z,87.13
2018-04-11T07:11:57.326Z,86.97
2018-04-11T07:14:25.465Z,86.29
2018-04-11T07:16:53.589Z,86.19
2018-04-11T07:19:21.707Z,87.04
2018-04-11T07:21:52.793Z,87.11
2018-04-11T07:24:23.990Z,86.31
2018-04-11T07:26:52.125Z,85.68
2018-04-11T07:29:20.275Z,86.55
2018-04-11T07:31:48.411Z,87.10
2018-04-11T07:34:16.547Z,86.51
2018-04-11T07:36:44.712Z,86.50
2018-04-11T07:39:12.835Z,86.07
2018-04-11T07:41:40.989Z,85.87
2018-04-11T07:44:09.125Z,85.57
2018-04-11T07:46:37.259Z,86.39
2018-04-11T07:49:05.460Z,85.36
2018-04-11T07:51:33.609Z,84.50
2018-04-11T07:54:02.140Z,83.02
2018-04-11T07:56:30.284Z,84.67
2018-04-11T07:58:58.452Z,85.44
2018-04-11T08:01:26.581Z,85.31
2018-04-11T08:03:54.731Z,85.11
2018-04-11T08:06:22.883Z,84.51
2018-04-11T08:08:50.991Z,84.01
2018-04-11T08:11:19.131Z,84.22
2018-04-11T08:13:47.299Z,83.34
2018-04-11T08:16:15.457Z,83.78
2018-04-11T08:18:43.561Z,83.91
2018-04-11T08:21:11.691Z,83.76
2018-04-11T08:23:39.310Z,83.08
2018-04-11T08:26:07.588Z,83.05
2018-04-11T08:28:35.755Z,83.94
2018-04-11T08:31:03.891Z,83.84
2018-04-11T08:33:32.008Z,83.89
2018-04-11T08:36:00.144Z,82.61
2018-04-11T08:38:28.281Z,82.94
2018-04-11T08:40:56.423Z,83.29
2018-04-11T08:43:24.595Z,82.24
2018-04-11T08:45:52.718Z,82.53
2018-04-11T08:48:20.846Z,81.67
2018-04-11T08:50:48.973Z,81.14
2018-04-11T08:53:17.095Z,81.68
2018-04-11T08:55:45.264Z,82.65
2018-04-11T08:58:13.395Z,83.04
2018-04-11T09:00:41.532Z,83.46
2018-04-11T09:03:09.675Z,84.36
2018-04-11T09:05:37.813Z,84.77
2018-04-11T09:08:05.985Z,84.99
2018-04-11T09:10:34.117Z,84.86
2018-04-11T09:13:02.244Z,84.42
2018-04-11T09:15:30.400Z,84.59
2018-04-11T09:17:58.559Z,84.47
2018-04-11T09:20:26.724Z,85.03
2018-04-11T09:22:54.847Z,83.92
2018-04-11T09:25:23.004Z,84.06
2018-04-11T09:27:51.165Z,85.20
2018-04-11T09:30:19.279Z,84.48
2018-04-11T09:32:47.441Z,84.29
2018-04-11T09:35:15.577Z,84.31
2018-04-11T09:37:43.720Z,83.96
2018-04-11T09:40:11.866Z,84.15
2018-04-11T09:42:40.008Z,83.50
2018-04-11T09:45:08.161Z,83.01
2018-04-11T09:47:36.310Z,82.63
2018-04-11T09:50:04.459Z,81.67
2018-04-11T09:52:32.608Z,82.37
2018-04-11T09:55:00.718Z,82.38
2018-04-11T09:57:28.988Z,83.40
2018-04-11T09:59:57.131Z,81.90
2018-04-11T10:02:25.271Z,82.16
2018-04-11T10:04:53.396Z,82.75
2018-04-11T10:07:21.541Z,83.15
2018-04-11T10:09:49.663Z,82.49
2018-04-11T10:12:17.795Z,81.69
2018-04-11T10:14:45.956Z,82.40
2018-04-11T10:17:14.101Z,81.27
2018-04-11T10:19:42.254Z,81.49
2018-04-11T10:22:10.382Z,82.54
2018-04-11T10:24:38.531Z,82.32
2018-04-11T10:27:06.665Z,81.77
2018-04-11T10:29:34.848Z,82.29
2018-04-11T10:32:02.988Z,82.60
2018-04-11T10:34:31.139Z,82.74
2018-04-11T10:36:59.269Z,82.56
2018-04-11T10:39:28.299Z,82.63
2018-04-11T10:41:56.500Z,82.72
2018-04-11T10:44:24.626Z,82.29
2018-04-11T10:46:52.845Z,82.64
2018-04-11T10:49:20.960Z,82.41
2018-04-11T10:51:49.434Z,81.42
2018-04-11T10:54:17.582Z,81.20
2018-04-11T10:56:45.714Z,81.71
2018-04-11T10:59:13.872Z,82.44
2018-04-11T11:01:41.995Z,82.79
2018-04-11T11:04:10.149Z,82.90
2018-04-11T11:06:38.291Z,83.31
2018-04-11T11:09:06.416Z,83.94
2018-04-11T11:11:34.814Z,83.46
2018-04-11T11:14:02.949Z,83.26
2018-04-11T11:16:36.093Z,82.99
2018-04-11T11:19:04.226Z,82.49
2018-04-11T11:21:32.356Z,82.42
2018-04-11T11:24:00.482Z,82.32
2018-04-11T11:26:28.592Z,81.89
2018-04-11T11:28:56.754Z,82.56
2018-04-11T11:31:24.869Z,82.68
2018-04-11T11:33:52.987Z,82.80
2018-04-11T11:36:21.156Z,82.57
2018-04-11T11:38:49.278Z,82.19
2018-04-11T11:41:17.433Z,82.55
2018-04-11T11:43:45.558Z,82.73
2018-04-11T11:46:13.697Z,83.26
2018-04-11T11:48:41.841Z,84.01
2018-04-11T11:51:09.981Z,84.52
2018-04-11T11:53:38.150Z,85.72
2018-04-11T11:56:06.287Z,86.11
2018-04-11T11:58:34.428Z,86.87
2018-04-11T12:01:02.618Z,86.49
2018-04-11T12:03:30.756Z,85.65
2018-04-11T12:05:58.884Z,86.40
2018-04-11T12:08:27.009Z,86.31
2018-04-11T12:10:55.157Z,86.07
2018-04-11T12:13:23.291Z,85.49
2018-04-11T12:15:51.447Z,86.11
2018-04-11T12:18:19.609Z,85.97
2018-04-11T12:20:47.749Z,87.06
2018-04-11T12:23:15.875Z,87.70
2018-04-11T12:25:44.143Z,87.12
2018-04-11T12:28:12.265Z,87.45
2018-04-11T12:30:40.409Z,88.57
2018-04-11T12:33:08.535Z,88.17
2018-04-11T12:35:36.671Z,89.04
2018-04-11T12:38:04.810Z,88.27
2018-04-11T12:40:32.923Z,89.28
2018-04-11T12:43:01.077Z,88.11
2018-04-11T12:45:29.201Z,89.11
2018-04-11T12:47:57.329Z,89.00
2018-04-11T12:50:25.493Z,89.39
2018-04-11T12:52:53.611Z,89.48
2018-04-11T12:55:21.783Z,89.68
2018-04-11T12:57:49.937Z,89.61
2018-04-11T13:00:18.103Z,88.86
2018-04-11T13:02:46.226Z,88.88
2018-04-11T13:05:14.365Z,88.14
2018-04-11T13:07:42.517Z,88.67
2018-04-11T13:10:10.668Z,89.92
2018-04-11T13:12:38.808Z,90.05
2018-04-11T13:15:06.996Z,90.10
2018-04-11T13:17:35.093Z,89.45
2018-04-11T13:20:03.246Z,89.86
2018-04-11T13:22:31.374Z,89.53
2018-04-11T13:24:59.509Z,89.74
2018-04-11T13:27:27.649Z,88.94
2018-04-11T13:29:55.777Z,90.41
2018-04-11T13:32:23.932Z,89.95
2018-04-11T13:34:52.084Z,88.36
2018-04-11T13:37:20.216Z,90.10
2018-04-11T13:39:48.395Z,90.27
2018-04-11T13:42:16.508Z,90.20
2018-04-11T13:44:44.677Z,88.58
2018-04-11T13:47:12.792Z,87.79
2018-04-11T13:49:40.964Z,87.98
2018-04-11T13:52:09.078Z,87.44
2018-04-11T13:54:37.225Z,88.59
2018-04-11T13:57:05.406Z,86.84
2018-04-11T13:59:33.566Z,86.58
2018-04-11T14:02:01.687Z,87.56
2018-04-11T14:04:29.835Z,86.63
2018-04-11T14:06:57.993Z,86.24
2018-04-11T14:09:26.103Z,85.88
2018-04-11T14:11:54.234Z,86.69
2018-04-11T14:14:22.395Z,86.78
2018-04-11T14:16:50.515Z,85.26
2018-04-11T14:19:18.658Z,85.42
2018-04-11T14:21:46.806Z,86.43
2018-04-11T14:24:14.937Z,85.32
2018-04-11T14:26:43.083Z,84.46
2018-04-11T14:29:11.269Z,84.98
2018-04-11T14:31:39.421Z,83.75
2018-04-11T14:34:07.585Z,83.98
2018-04-11T14:36:35.754Z,83.32
2018-04-11T14:39:03.915Z,84.90
2018-04-11T14:41:32.095Z,85.12
2018-04-11T14:44:00.225Z,85.15
2018-04-11T14:46:28.393Z,83.77
2018-04-11T14:48:56.511Z,84.20
2018-04-11T14:51:24.672Z,82.96
2018-04-11T14:53:52.812Z,83.29
2018-04-11T14:56:20.943Z,82.12
2018-04-11T14:58:49.104Z,82.51
2018-04-11T15:01:17.221Z,82.17
2018-04-11T15:03:45.350Z,82.49
2018-04-11T15:06:13.674Z,82.93
2018-04-11T15:08:41.780Z,82.33
2018-04-11T15:11:09.924Z,82.86
2018-04-11T15:13:38.092Z,82.93
2018-04-11T15:16:06.201Z,81.72
2018-04-11T15:18:34.330Z,81.24
2018-04-11T15:21:02.490Z,81.47
2018-04-11T15:23:30.629Z,82.01
2018-04-11T15:25:58.747Z,82.03
2018-04-11T15:28:26.918Z,81.54
2018-04-11T15:30:55.057Z,81.30
2018-04-11T15:33:23.181Z,82.14
2018-04-11T15:35:51.354Z,81.59
2018-04-11T15:38:19.486Z,81.05
2018-04-11T15:40:47.622Z,81.37
2018-04-11T15:43:15.791Z,80.39
2018-04-11T15:45:43.933Z,79.78
2018-04-11T15:48:12.158Z,80.25
2018-04-11T15:50:40.329Z,80.42
2018-04-11T15:53:08.449Z,79.89
2018-04-11T15:55:36.585Z,80.23
2018-04-11T15:58:04.824Z,79.51
2018-04-11T16:00:32.948Z,79.28
2018-04-11T16:03:01.086Z,80.15
2018-04-11T16:05:29.232Z,80.26
2018-04-11T16:07:57.384Z,79.16
2018-04-11T16:10:25.513Z,78.64
2018-04-11T16:12:53.680Z,78.82
2018-04-11T16:15:21.815Z,78.10
2018-04-11T16:17:49.978Z,78.48
2018-04-11T16:20:18.138Z,77.60
2018-04-11T16:22:46.275Z,78.84
2018-04-11T16:25:14.419Z,78.04
2018-04-11T16:27:42.555Z,78.10
2018-04-11T16:30:10.681Z,78.09
2018-04-11T16:32:38.828Z,78.24
2018-04-11T16:35:06.981Z,77.41
2018-04-11T16:37:35.114Z,77.40
2018-04-11T16:40:03.275Z,77.51
2018-04-11T16:42:31.424Z,78.59
2018-04-11T16:44:59.541Z,76.84
2018-04-11T16:47:27.728Z,77.25
2018-04-11T16:49:55.855Z,78.02
2018-04-11T16:52:24.026Z,75.70
2018-04-11T16:54:52.163Z,77.00
2018-04-11T16:57:20.312Z,77.50
2018-04-11T16:59:48.432Z,77.45
2018-04-11T17:02:16.590Z,78.42
2018-04-11T17:04:44.727Z,77.82
2018-04-11T17:07:12.850Z,77.43
2018-04-11T17:09:41.030Z,77.95
2018-04-11T17:12:09.125Z,77.55
2018-04-11T17:14:42.903Z,77.58
2018-04-11T17:17:11.042Z,77.10
2018-04-11T17:19:39.198Z,77.30
2018-04-11T17:22:19.150Z,78.04
2018-04-11T17:24:59.149Z,76.48
2018-04-11T17:30:45.150Z,76.63
2018-04-11T17:33:13.311Z,78.18
2018-04-11T17:35:45.160Z,78.50
2018-04-11T17:38:13.301Z,78.31
2018-04-11T17:40:41.454Z,78.18
2018-04-11T17:43:09.604Z,76.94
2018-04-11T17:45:37.735Z,77.22
2018-04-11T17:48:09.570Z,78.81
2018-04-11T17:50:37.703Z,79.31
2018-04-11T17:53:05.873Z,79.96
2018-04-11T17:55:34.022Z,79.68
2018-04-11T17:58:02.210Z,80.49
2018-04-11T18:00:30.490Z,80.90
2018-04-11T18:02:58.648Z,80.81
2018-04-11T18:05:26.773Z,80.43
2018-04-11T18:07:54.948Z,81.06
2018-04-11T18:10:23.097Z,81.55
2018-04-11T18:12:51.269Z,81.97
2018-04-11T18:15:19.392Z,81.77
2018-04-11T18:17:47.542Z,82.81
2018-04-11T18:20:15.671Z,83.11
2018-04-11T18:22:47.604Z,83.16
2018-04-11T18:25:15.754Z,83.49
2018-04-11T18:27:43.906Z,83.69
2018-04-11T18:30:12.049Z,83.26
2018-04-11T18:32:40.171Z,83.38
2018-04-11T18:35:08.461Z,83.13
2018-04-11T18:37:36.609Z,83.26
2018-04-11T18:40:04.731Z,83.78
2018-04-11T18:42:32.855Z,83.94
2018-04-11T18:45:00.978Z,83.49
2018-04-11T18:47:29.144Z,83.37
2018-04-11T18:49:57.290Z,83.64
2018-04-11T18:52:25.414Z,83.89
2018-04-11T18:54:53.552Z,83.87
2018-04-11T18:57:21.686Z,83.96
2018-04-11T18:59:49.824Z,83.53
2018-04-11T19:02:18.016Z,83.74
2018-04-11T19:04:46.144Z,84.27
2018-04-11T19:07:14.265Z,84.20
2018-04-11T19:09:42.397Z,84.07
2018-04-11T19:12:10.538Z,84.11
2018-04-11T19:14:38.768Z,84.25
2018-04-11T19:17:10.335Z,84.40
2018-04-11T19:19:38.466Z,84.06
2018-04-11T19:22:06.601Z,83.64
2018-04-11T19:24:34.755Z,83.75
2018-04-11T19:27:02.963Z,83.90
2018-04-11T19:29:31.094Z,83.88
2018-04-11T19:31:59.273Z,83.83
2018-04-11T19:34:27.456Z,83.62
2018-04-11T19:36:58.932Z,83.46
2018-04-11T19:39:27.069Z,83.36
2018-04-11T19:41:55.199Z,83.34
2018-04-11T19:44:25.810Z,83.40
2018-04-11T19:46:53.873Z,83.56
2018-04-11T19:49:22.033Z,83.28
2018-04-11T19:51:50.146Z,83.47
2018-04-11T19:54:18.269Z,83.57
2018-04-11T19:56:46.403Z,83.52
2018-04-11T19:59:14.534Z,83.43
2018-04-11T20:01:42.662Z,83.32
2018-04-11T20:04:10.967Z,83.34
2018-04-11T20:06:39.188Z,83.60
2018-04-11T20:09:07.673Z,83.37
2018-04-11T20:11:36.087Z,83.33
2018-04-11T20:14:04.236Z,83.16
2018-04-11T20:16:32.358Z,83.24
2018-04-11T20:19:00.507Z,83.26
2018-04-11T20:21:28.641Z,83.23
2018-04-11T20:23:56.800Z,83.40
2018-04-11T20:26:24.915Z,83.17
2018-04-11T20:28:53.050Z,83.03
2018-04-11T20:31:21.193Z,83.17
2018-04-11T20:33:49.335Z,83.14
2018-04-11T20:36:17.462Z,83.25
2018-04-11T20:38:45.593Z,83.29
2018-04-11T20:41:13.727Z,82.93
2018-04-11T20:43:41.855Z,83.21
2018-04-11T20:46:10.021Z,83.30
2018-04-11T20:48:38.137Z,82.81
2018-04-11T20:51:06.334Z,82.81
2018-04-11T20:53:34.456Z,82.72
2018-04-11T20:56:02.593Z,82.86
2018-04-11T20:58:30.727Z,82.96
2018-04-11T21:00:58.849Z,82.84
2018-04-11T21:03:30.597Z,82.59
2018-04-11T21:05:58.733Z,82.96
2018-04-11T21:08:26.870Z,83.00
2018-04-11T21:10:54.990Z,82.85
2018-04-11T21:13:23.131Z,82.99
2018-04-11T21:15:51.240Z,83.10
2018-04-11T21:18:19.404Z,83.23
2018-04-11T21:20:47.537Z,83.82
2018-04-11T21:23:15.693Z,84.23
2018-04-11T21:25:43.881Z,84.22
2018-04-11T21:28:11.982Z,84.22
2018-04-11T21:30:40.158Z,84.29
2018-04-11T21:33:08.439Z,84.22
2018-04-11T21:35:36.565Z,84.38
2018-04-11T21:38:04.842Z,84.51
2018-04-11T21:40:32.985Z,84.62
2018-04-11T21:43:01.099Z,84.62
2018-04-11T21:45:29.228Z,84.75
2018-04-11T21:47:57.349Z,84.58
2018-04-11T21:50:25.504Z,84.73
2018-04-11T21:52:53.635Z,84.75
2018-04-11T21:55:21.782Z,84.64
2018-04-11T21:57:49.904Z,84.86
2018-04-11T22:00:18.035Z,84.84
2018-04-11T22:02:46.184Z,84.46
2018-04-11T22:05:14.304Z,84.62
2018-04-11T22:07:42.408Z,84.50
2018-04-11T22:10:10.541Z,84.65
2018-04-11T22:12:38.671Z,84.08
2018-04-11T22:15:06.802Z,84.17
2018-04-11T22:17:34.905Z,84.24
2018-04-11T22:20:03.024Z,83.96
2018-04-11T22:22:31.169Z,84.10
2018-04-11T22:24:59.313Z,83.97
2018-04-11T22:27:27.426Z,84.22
2018-04-11T22:29:55.647Z,84.23
2018-04-11T22:32:23.764Z,84.61
2018-04-11T22:34:51.909Z,84.71
2018-04-11T22:37:20.019Z,84.35
2018-04-11T22:39:48.185Z,84.58
2018-04-11T22:42:16.327Z,84.58
2018-04-11T22:44:44.772Z,84.64
2018-04-11T22:47:12.912Z,84.35
2018-04-11T22:49:41.055Z,84.55
2018-04-11T22:52:09.193Z,84.50
2018-04-11T22:54:37.313Z,84.70
2018-04-11T22:57:05.464Z,84.96
2018-04-11T22:59:33.615Z,85.09
2018-04-11T23:02:01.771Z,84.97
2018-04-11T23:04:29.897Z,84.90
2018-04-11T23:06:58.024Z,85.09
2018-04-11T23:09:26.193Z,85.08
2018-04-11T23:11:54.321Z,85.39
2018-04-11T23:14:22.464Z,85.31
2018-04-11T23:16:50.636Z,85.34
2018-04-11T23:19:18.788Z,86.19
2018-04-11T23:21:46.943Z,86.54
2018-04-11T23:24:15.112Z,86.35
2018-04-11T23:26:43.259Z,86.55
2018-04-11T23:29:11.420Z,87.55
2018-04-11T23:31:39.560Z,87.34
2018-04-11T23:34:07.704Z,86.60
2018-04-11T23:36:35.870Z,87.95
2018-04-11T23:39:04.016Z,87.56
2018-04-11T23:41:32.191Z,88.18
2018-04-11T23:44:00.325Z,88.43
2018-04-11T23:46:28.459Z,87.74
2018-04-11T23:48:56.619Z,87.54
2018-04-11T23:51:24.767Z,87.89
2018-04-11T23:53:52.927Z,87.72
2018-04-11T23:56:21.068Z,87.74
2018-04-11T23:58:49.216Z,87.54
